Los Angeles, CA (90002)

1:57 PM PST on February 23, 2017 (GMT -0800)
Victoria Ave Elementary | | Change Station

Elev 125 ft 33.95 °N, 118.21 °W | Updated 2 minutes ago

Clear
Clear
60.7 °F
Feels Like 60.7 °F
N
3.0
Wind Variable Wind from WNW
Gusts 21.0 mph

Today
High -- | Low -- °F
--% Chance of Precip.
Yesterday
High -- | Low -- °F
Precip. -- in
Pressure 30.03 in
Visibility 10.0 miles
Clouds Clear
Dew Point 25 °F
Humidity 25%
Rainfall 0.00 in
Snow Depth Not available.
6:28 AM 5:44 PM
Waning Crescent, 8% visible
METAR KHHR 232153Z 26018G21KT 10SM CLR 15/M01 A3003 RMK AO2 SLP168 T01501011
Pressure 30.03 in
Visibility 10.0 miles
Clouds Clear
Dew Point 25 °F
Humidity 25%
Rainfall 0.00 in
Snow Depth Not available.
6:28 AM 5:44 PM
Waning Crescent, 8% visible
METAR KHHR 232153Z 26018G21KT 10SM CLR 15/M01 A3003 RMK AO2 SLP168 T01501011

Get Your Daily Forecast Email!

Thanks for signing up!

Be on the lookout for a verification email in your inbox.

You'll start receiving the daily forecast at 8 AM.

×

10-Day Weather Forecast

Almanac

Astronomy

Feb. 23, 2017 Rise Set
Actual Time
Civil Twilight
Nautical Twilight
Astronomical Twilight
Moon
Length of Visible Light
Length of Day
Tomorrow will be .
, % of the Moon is Illuminated

Today's Extremes

State Highs State Lows

Community

WunderPhotos

Upload Photos

1,962,540 photos uploaded!

WunderBlog® & News

Nearby

Air Quality

  Air Quality AQ Index Pollutant
Not available.

Snow Depth

Station Depth Elevation

Earthquake Activity

City Distance Mag. Time & Date
Minimum magnitude displayed is 2.5.

Coastal Water Temperatures

Place Temperature

Stations

Nearby Weather Stations

Station Location Temp. Windchill Dew Point Humidity Wind Precip. Elev Updated Type
                   

Watches & Warnings

High Surf Advisory
Issued: 8:08 AM PST Feb. 23, 2017 – National Weather Service

... High surf advisory remains in effect until 9 PM PST this
evening...

* surf... surf of 6 to 10 feet with local sets up to 12 feet will
continue across Los Angeles and Ventura County beaches through
tonight. The largest surf will likely occur on west facing beaches
such as Ventura and el porto.

* Impacts... large waves and strong rip currents will increase
the risk of ocean drowning for swimmers and surfers. Large
breaking waves can cause injury... wash people off beaches and
rocks... and capsize small boats nearshore.

Precautionary/preparedness actions...

A high surf advisory means that high surf will affect beaches in
the advisory area... producing localized beach erosion and
dangerous swimming conditions.


/Kj